sensor_id;sensor_type;location;lat;lon;timestamp;P1;durP1;ratioP1;P2;durP2;ratioP2
5054;SDS011;13829;48.990;8.346;2023-02-18T00:01:26;1.93;;;1.73;;
5054;SDS011;13829;48.990;8.346;2023-02-18T00:03:54;1.80;;;1.70;;
5054;SDS011;13829;48.990;8.346;2023-02-18T00:06:23;2.20;;;2.00;;
5054;SDS011;13829;48.990;8.346;2023-02-18T00:08:54;2.00;;;1.73;;
5054;SDS011;13829;48.990;8.346;2023-02-18T00:11:23;2.63;;;1.90;;
5054;SDS011;13829;48.990;8.346;2023-02-18T00:13:50;1.93;;;1.77;;
5054;SDS011;13829;48.990;8.346;2023-02-18T00:16:19;2.27;;;1.90;;
5054;SDS011;13829;48.990;8.346;2023-02-18T00:18:47;2.10;;;1.80;;
5054;SDS011;13829;48.990;8.346;2023-02-18T00:21:15;1.67;;;1.53;;
5054;SDS011;13829;48.990;8.346;2023-02-18T00:23:42;2.80;;;2.17;;
5054;SDS011;13829;48.990;8.346;2023-02-18T00:26:11;1.70;;;1.60;;
5054;SDS011;13829;48.990;8.346;2023-02-18T00:28:41;2.80;;;1.97;;
5054;SDS011;13829;48.990;8.346;2023-02-18T00:31:09;2.50;;;1.90;;
5054;SDS011;13829;48.990;8.346;2023-02-18T00:33:40;2.33;;;1.77;;
5054;SDS011;13829;48.990;8.346;2023-02-18T00:36:09;2.47;;;1.93;;
5054;SDS011;13829;48.990;8.346;2023-02-18T00:38:42;2.13;;;1.80;;
5054;SDS011;13829;48.990;8.346;2023-02-18T00:41:12;4.17;;;1.90;;
5054;SDS011;13829;48.990;8.346;2023-02-18T00:43:39;2.10;;;1.90;;
5054;SDS011;13829;48.990;8.346;2023-02-18T00:46:06;3.67;;;2.37;;
5054;SDS011;13829;48.990;8.346;2023-02-18T00:48:35;2.30;;;2.10;;
5054;SDS011;13829;48.990;8.346;2023-02-18T00:51:02;2.47;;;2.10;;
5054;SDS011;13829;48.990;8.346;2023-02-18T00:53:30;2.27;;;2.07;;
5054;SDS011;13829;48.990;8.346;2023-02-18T00:55:58;2.73;;;2.03;;
5054;SDS011;13829;48.990;8.346;2023-02-18T00:58:26;3.07;;;2.30;;
5054;SDS011;13829;48.990;8.346;2023-02-18T01:00:53;2.87;;;1.80;;
5054;SDS011;13829;48.990;8.346;2023-02-18T01:03:21;2.47;;;2.10;;
5054;SDS011;13829;48.990;8.346;2023-02-18T01:05:49;2.97;;;2.33;;
5054;SDS011;13829;48.990;8.346;2023-02-18T01:08:17;2.57;;;1.73;;
5054;SDS011;13829;48.990;8.346;2023-02-18T01:10:47;2.47;;;2.10;;
5054;SDS011;13829;48.990;8.346;2023-02-18T01:13:17;2.73;;;2.37;;
5054;SDS011;13829;48.990;8.346;2023-02-18T01:15:46;2.60;;;2.37;;
5054;SDS011;13829;48.990;8.346;2023-02-18T01:18:13;2.20;;;2.00;;
5054;SDS011;13829;48.990;8.346;2023-02-18T01:20:41;2.23;;;2.03;;
5054;SDS011;13829;48.990;8.346;2023-02-18T01:23:10;2.33;;;2.13;;
5054;SDS011;13829;48.990;8.346;2023-02-18T01:25:39;3.47;;;2.60;;
5054;SDS011;13829;48.990;8.346;2023-02-18T01:28:07;3.03;;;2.73;;
5054;SDS011;13829;48.990;8.346;2023-02-18T01:30:37;2.83;;;2.63;;
5054;SDS011;13829;48.990;8.346;2023-02-18T01:33:06;2.90;;;2.40;;
5054;SDS011;13829;48.990;8.346;2023-02-18T01:35:33;3.07;;;2.50;;
5054;SDS011;13829;48.990;8.346;2023-02-18T01:38:03;4.43;;;2.80;;
5054;SDS011;13829;48.990;8.346;2023-02-18T01:40:30;4.53;;;3.10;;
5054;SDS011;13829;48.990;8.346;2023-02-18T01:42:57;3.60;;;2.97;;
5054;SDS011;13829;48.990;8.346;2023-02-18T01:45:41;3.33;;;2.80;;
5054;SDS011;13829;48.990;8.346;2023-02-18T01:48:31;3.50;;;2.97;;
5054;SDS011;13829;48.990;8.346;2023-02-18T01:51:04;3.67;;;3.03;;
5054;SDS011;13829;48.990;8.346;2023-02-18T01:53:39;4.67;;;3.83;;
5054;SDS011;13829;48.990;8.346;2023-02-18T01:56:15;3.97;;;3.30;;
5054;SDS011;13829;48.990;8.346;2023-02-18T01:58:51;3.70;;;3.07;;
5054;SDS011;13829;48.990;8.346;2023-02-18T02:01:22;3.93;;;3.40;;
5054;SDS011;13829;48.990;8.346;2023-02-18T02:03:52;3.60;;;3.03;;
5054;SDS011;13829;48.990;8.346;2023-02-18T02:06:21;4.13;;;3.23;;
5054;SDS011;13829;48.990;8.346;2023-02-18T02:08:50;4.17;;;3.50;;
5054;SDS011;13829;48.990;8.346;2023-02-18T02:14:38;5.70;;;3.87;;
5054;SDS011;13829;48.990;8.346;2023-02-18T02:17:48;5.33;;;3.57;;
5054;SDS011;13829;48.990;8.346;2023-02-18T02:27:28;3.60;;;3.30;;
5054;SDS011;13829;48.990;8.346;2023-02-18T02:30:35;4.27;;;3.63;;
5054;SDS011;13829;48.990;8.346;2023-02-18T02:33:23;5.27;;;4.13;;
5054;SDS011;13829;48.990;8.346;2023-02-18T02:36:30;4.23;;;3.83;;
5054;SDS011;13829;48.990;8.346;2023-02-18T02:39:11;5.17;;;4.07;;
5054;SDS011;13829;48.990;8.346;2023-02-18T02:41:49;5.00;;;4.50;;
5054;SDS011;13829;48.990;8.346;2023-02-18T02:44:30;5.37;;;4.20;;
5054;SDS011;13829;48.990;8.346;2023-02-18T02:47:08;4.80;;;4.00;;
5054;SDS011;13829;48.990;8.346;2023-02-18T02:49:46;4.30;;;3.90;;
5054;SDS011;13829;48.990;8.346;2023-02-18T02:52:25;5.77;;;4.43;;
5054;SDS011;13829;48.990;8.346;2023-02-18T02:54:57;4.53;;;4.13;;
5054;SDS011;13829;48.990;8.346;2023-02-18T02:57:44;4.60;;;4.10;;
5054;SDS011;13829;48.990;8.346;2023-02-18T03:00:14;5.07;;;4.57;;
5054;SDS011;13829;48.990;8.346;2023-02-18T03:02:54;5.10;;;4.60;;
5054;SDS011;13829;48.990;8.346;2023-02-18T03:05:43;4.40;;;4.00;;
5054;SDS011;13829;48.990;8.346;2023-02-18T03:08:42;5.47;;;4.97;;
5054;SDS011;13829;48.990;8.346;2023-02-18T03:11:22;6.80;;;4.20;;
5054;SDS011;13829;48.990;8.346;2023-02-18T03:13:55;5.00;;;4.47;;
5054;SDS011;13829;48.990;8.346;2023-02-18T03:16:33;4.80;;;4.03;;
5054;SDS011;13829;48.990;8.346;2023-02-18T03:19:09;4.07;;;3.67;;
5054;SDS011;13829;48.990;8.346;2023-02-18T03:21:47;4.50;;;4.10;;
5054;SDS011;13829;48.990;8.346;2023-02-18T03:24:24;4.30;;;3.90;;
5054;SDS011;13829;48.990;8.346;2023-02-18T03:26:58;4.60;;;4.20;;
5054;SDS011;13829;48.990;8.346;2023-02-18T03:29:31;4.57;;;4.17;;
5054;SDS011;13829;48.990;8.346;2023-02-18T03:32:02;4.50;;;3.93;;
5054;SDS011;13829;48.990;8.346;2023-02-18T03:34:34;4.50;;;4.10;;
5054;SDS011;13829;48.990;8.346;2023-02-18T03:37:06;4.57;;;3.67;;
5054;SDS011;13829;48.990;8.346;2023-02-18T03:39:39;5.70;;;3.63;;
5054;SDS011;13829;48.990;8.346;2023-02-18T03:42:11;4.60;;;4.20;;
5054;SDS011;13829;48.990;8.346;2023-02-18T03:44:38;4.67;;;3.90;;
5054;SDS011;13829;48.990;8.346;2023-02-18T03:47:05;5.13;;;4.23;;
5054;SDS011;13829;48.990;8.346;2023-02-18T03:49:32;4.57;;;3.77;;
5054;SDS011;13829;48.990;8.346;2023-02-18T03:51:59;4.70;;;4.07;;
5054;SDS011;13829;48.990;8.346;2023-02-18T03:54:26;4.37;;;3.73;;
5054;SDS011;13829;48.990;8.346;2023-02-18T03:56:54;4.77;;;3.73;;
5054;SDS011;13829;48.990;8.346;2023-02-18T03:59:21;4.87;;;3.60;;
5054;SDS011;13829;48.990;8.346;2023-02-18T04:01:48;5.47;;;4.10;;
5054;SDS011;13829;48.990;8.346;2023-02-18T04:04:15;4.50;;;4.10;;
5054;SDS011;13829;48.990;8.346;2023-02-18T04:06:42;3.97;;;3.57;;
5054;SDS011;13829;48.990;8.346;2023-02-18T04:09:09;4.10;;;3.70;;
5054;SDS011;13829;48.990;8.346;2023-02-18T04:11:36;4.40;;;3.73;;
5054;SDS011;13829;48.990;8.346;2023-02-18T04:14:06;4.03;;;3.33;;
5054;SDS011;13829;48.990;8.346;2023-02-18T04:16:33;4.30;;;3.70;;
5054;SDS011;13829;48.990;8.346;2023-02-18T04:19:00;4.40;;;3.60;;
5054;SDS011;13829;48.990;8.346;2023-02-18T04:21:27;3.67;;;3.30;;
5054;SDS011;13829;48.990;8.346;2023-02-18T04:23:54;4.40;;;3.80;;
5054;SDS011;13829;48.990;8.346;2023-02-18T04:26:21;4.03;;;3.73;;
5054;SDS011;13829;48.990;8.346;2023-02-18T04:28:48;4.77;;;3.60;;
5054;SDS011;13829;48.990;8.346;2023-02-18T04:31:16;5.03;;;3.43;;
5054;SDS011;13829;48.990;8.346;2023-02-18T04:33:43;3.73;;;3.30;;
5054;SDS011;13829;48.990;8.346;2023-02-18T04:36:11;4.93;;;3.40;;
5054;SDS011;13829;48.990;8.346;2023-02-18T04:38:38;6.67;;;3.50;;
5054;SDS011;13829;48.990;8.346;2023-02-18T04:41:06;3.87;;;3.20;;
5054;SDS011;13829;48.990;8.346;2023-02-18T04:43:33;4.90;;;3.00;;
5054;SDS011;13829;48.990;8.346;2023-02-18T04:46:00;4.27;;;3.50;;
5054;SDS011;13829;48.990;8.346;2023-02-18T04:48:28;3.90;;;3.60;;
5054;SDS011;13829;48.990;8.346;2023-02-18T04:50:55;4.07;;;3.67;;
5054;SDS011;13829;48.990;8.346;2023-02-18T04:53:22;3.87;;;3.33;;
5054;SDS011;13829;48.990;8.346;2023-02-18T04:55:49;3.53;;;3.20;;
5054;SDS011;13829;48.990;8.346;2023-02-18T04:58:17;3.53;;;3.20;;
5054;SDS011;13829;48.990;8.346;2023-02-18T05:00:44;4.53;;;3.07;;
5054;SDS011;13829;48.990;8.346;2023-02-18T05:03:13;3.43;;;2.90;;
5054;SDS011;13829;48.990;8.346;2023-02-18T05:05:42;3.93;;;3.03;;
5054;SDS011;13829;48.990;8.346;2023-02-18T05:08:09;3.77;;;3.37;;
5054;SDS011;13829;48.990;8.346;2023-02-18T05:10:37;3.57;;;3.13;;
5054;SDS011;13829;48.990;8.346;2023-02-18T05:13:04;4.07;;;3.47;;
5054;SDS011;13829;48.990;8.346;2023-02-18T05:15:31;3.57;;;3.20;;
5054;SDS011;13829;48.990;8.346;2023-02-18T05:17:58;4.20;;;3.20;;
5054;SDS011;13829;48.990;8.346;2023-02-18T05:20:25;3.40;;;3.10;;
5054;SDS011;13829;48.990;8.346;2023-02-18T05:22:53;3.43;;;3.13;;
5054;SDS011;13829;48.990;8.346;2023-02-18T05:25:20;3.97;;;3.10;;
5054;SDS011;13829;48.990;8.346;2023-02-18T05:27:47;4.00;;;3.27;;
5054;SDS011;13829;48.990;8.346;2023-02-18T05:30:14;3.90;;;3.30;;
5054;SDS011;13829;48.990;8.346;2023-02-18T05:32:42;3.47;;;3.07;;
5054;SDS011;13829;48.990;8.346;2023-02-18T05:35:09;4.10;;;3.70;;
5054;SDS011;13829;48.990;8.346;2023-02-18T05:37:36;3.50;;;3.20;;
5054;SDS011;13829;48.990;8.346;2023-02-18T05:40:05;3.30;;;3.00;;
5054;SDS011;13829;48.990;8.346;2023-02-18T05:42:33;3.53;;;3.23;;
5054;SDS011;13829;48.990;8.346;2023-02-18T05:45:00;3.70;;;3.20;;
5054;SDS011;13829;48.990;8.346;2023-02-18T05:47:27;3.90;;;3.50;;
5054;SDS011;13829;48.990;8.346;2023-02-18T05:49:53;4.80;;;3.10;;
5054;SDS011;13829;48.990;8.346;2023-02-18T05:52:20;2.80;;;2.60;;
5054;SDS011;13829;48.990;8.346;2023-02-18T05:54:47;4.07;;;3.40;;
5054;SDS011;13829;48.990;8.346;2023-02-18T05:57:16;3.23;;;2.90;;
5054;SDS011;13829;48.990;8.346;2023-02-18T05:59:43;3.67;;;2.60;;
5054;SDS011;13829;48.990;8.346;2023-02-18T06:02:10;4.17;;;2.83;;
5054;SDS011;13829;48.990;8.346;2023-02-18T06:04:37;3.00;;;2.70;;
5054;SDS011;13829;48.990;8.346;2023-02-18T06:07:04;3.07;;;2.73;;
5054;SDS011;13829;48.990;8.346;2023-02-18T06:09:31;3.43;;;3.10;;
5054;SDS011;13829;48.990;8.346;2023-02-18T06:11:58;3.80;;;2.87;;
5054;SDS011;13829;48.990;8.346;2023-02-18T06:14:27;3.03;;;2.57;;
5054;SDS011;13829;48.990;8.346;2023-02-18T06:16:54;3.03;;;2.57;;
5054;SDS011;13829;48.990;8.346;2023-02-18T06:19:20;3.87;;;3.00;;
5054;SDS011;13829;48.990;8.346;2023-02-18T06:21:48;3.30;;;2.80;;
5054;SDS011;13829;48.990;8.346;2023-02-18T06:24:14;3.13;;;2.60;;
5054;SDS011;13829;48.990;8.346;2023-02-18T06:26:41;3.33;;;2.97;;
5054;SDS011;13829;48.990;8.346;2023-02-18T06:29:08;3.03;;;2.63;;
5054;SDS011;13829;48.990;8.346;2023-02-18T06:31:36;4.30;;;3.03;;
5054;SDS011;13829;48.990;8.346;2023-02-18T06:34:03;3.23;;;2.83;;
5054;SDS011;13829;48.990;8.346;2023-02-18T06:36:30;3.40;;;2.80;;
5054;SDS011;13829;48.990;8.346;2023-02-18T06:38:57;3.07;;;2.77;;
5054;SDS011;13829;48.990;8.346;2023-02-18T06:41:24;2.90;;;2.60;;
5054;SDS011;13829;48.990;8.346;2023-02-18T06:43:51;3.33;;;2.97;;
5054;SDS011;13829;48.990;8.346;2023-02-18T06:46:18;3.60;;;2.80;;
5054;SDS011;13829;48.990;8.346;2023-02-18T06:48:46;4.13;;;2.93;;
5054;SDS011;13829;48.990;8.346;2023-02-18T06:51:14;3.50;;;2.60;;
5054;SDS011;13829;48.990;8.346;2023-02-18T06:53:41;3.70;;;3.03;;
5054;SDS011;13829;48.990;8.346;2023-02-18T06:56:08;3.87;;;2.90;;
5054;SDS011;13829;48.990;8.346;2023-02-18T06:58:36;3.40;;;3.10;;
5054;SDS011;13829;48.990;8.346;2023-02-18T07:01:03;2.90;;;2.57;;
5054;SDS011;13829;48.990;8.346;2023-02-18T07:03:30;3.00;;;2.70;;
5054;SDS011;13829;48.990;8.346;2023-02-18T07:05:58;3.33;;;2.87;;
5054;SDS011;13829;48.990;8.346;2023-02-18T07:08:26;3.70;;;2.90;;
5054;SDS011;13829;48.990;8.346;2023-02-18T07:10:54;3.90;;;2.67;;
5054;SDS011;13829;48.990;8.346;2023-02-18T07:13:21;2.87;;;2.57;;
5054;SDS011;13829;48.990;8.346;2023-02-18T07:15:48;2.47;;;2.27;;
5054;SDS011;13829;48.990;8.346;2023-02-18T07:18:15;3.17;;;2.80;;
5054;SDS011;13829;48.990;8.346;2023-02-18T07:20:42;2.73;;;2.43;;
5054;SDS011;13829;48.990;8.346;2023-02-18T07:23:10;3.07;;;2.73;;
5054;SDS011;13829;48.990;8.346;2023-02-18T07:25:37;3.47;;;2.90;;
5054;SDS011;13829;48.990;8.346;2023-02-18T07:28:04;3.80;;;2.53;;
5054;SDS011;13829;48.990;8.346;2023-02-18T07:30:31;4.87;;;2.50;;
5054;SDS011;13829;48.990;8.346;2023-02-18T07:32:58;3.20;;;2.73;;
5054;SDS011;13829;48.990;8.346;2023-02-18T07:35:25;3.00;;;2.70;;
5054;SDS011;13829;48.990;8.346;2023-02-18T07:37:52;2.93;;;2.53;;
5054;SDS011;13829;48.990;8.346;2023-02-18T07:40:23;2.67;;;2.20;;
5054;SDS011;13829;48.990;8.346;2023-02-18T07:42:50;4.77;;;2.27;;
5054;SDS011;13829;48.990;8.346;2023-02-18T07:45:17;3.40;;;2.50;;
5054;SDS011;13829;48.990;8.346;2023-02-18T07:47:44;4.37;;;3.03;;
5054;SDS011;13829;48.990;8.346;2023-02-18T07:50:11;3.50;;;2.20;;
5054;SDS011;13829;48.990;8.346;2023-02-18T07:52:38;2.37;;;1.80;;
5054;SDS011;13829;48.990;8.346;2023-02-18T07:55:05;2.77;;;2.40;;
5054;SDS011;13829;48.990;8.346;2023-02-18T07:57:34;2.47;;;2.27;;
5054;SDS011;13829;48.990;8.346;2023-02-18T08:00:21;3.80;;;2.40;;
5054;SDS011;13829;48.990;8.346;2023-02-18T08:02:49;2.60;;;2.10;;
5054;SDS011;13829;48.990;8.346;2023-02-18T08:05:16;2.57;;;2.37;;
5054;SDS011;13829;48.990;8.346;2023-02-18T08:07:43;2.20;;;2.00;;
5054;SDS011;13829;48.990;8.346;2023-02-18T08:10:10;4.00;;;2.33;;
5054;SDS011;13829;48.990;8.346;2023-02-18T08:12:38;2.80;;;2.37;;
5054;SDS011;13829;48.990;8.346;2023-02-18T08:15:05;3.07;;;2.53;;
5054;SDS011;13829;48.990;8.346;2023-02-18T08:17:33;3.43;;;2.30;;
5054;SDS011;13829;48.990;8.346;2023-02-18T08:20:00;2.40;;;2.20;;
5054;SDS011;13829;48.990;8.346;2023-02-18T08:22:27;2.73;;;2.13;;
5054;SDS011;13829;48.990;8.346;2023-02-18T08:24:54;2.50;;;2.10;;
5054;SDS011;13829;48.990;8.346;2023-02-18T08:27:21;4.60;;;2.57;;
5054;SDS011;13829;48.990;8.346;2023-02-18T08:29:50;3.07;;;2.57;;
5054;SDS011;13829;48.990;8.346;2023-02-18T08:32:17;2.40;;;2.17;;
5054;SDS011;13829;48.990;8.346;2023-02-18T08:34:44;3.03;;;2.33;;
5054;SDS011;13829;48.990;8.346;2023-02-18T08:37:11;3.17;;;2.30;;
5054;SDS011;13829;48.990;8.346;2023-02-18T08:39:38;2.97;;;2.07;;
5054;SDS011;13829;48.990;8.346;2023-02-18T08:42:05;1.87;;;1.73;;
5054;SDS011;13829;48.990;8.346;2023-02-18T08:44:32;2.27;;;2.00;;
5054;SDS011;13829;48.990;8.346;2023-02-18T08:47:01;2.60;;;2.00;;
5054;SDS011;13829;48.990;8.346;2023-02-18T08:49:28;2.80;;;1.70;;
5054;SDS011;13829;48.990;8.346;2023-02-18T08:51:55;3.60;;;1.63;;
5054;SDS011;13829;48.990;8.346;2023-02-18T08:54:22;3.23;;;2.10;;
5054;SDS011;13829;48.990;8.346;2023-02-18T08:56:49;3.67;;;1.97;;
5054;SDS011;13829;48.990;8.346;2023-02-18T08:59:21;4.03;;;2.30;;
5054;SDS011;13829;48.990;8.346;2023-02-18T09:01:49;2.00;;;1.80;;
5054;SDS011;13829;48.990;8.346;2023-02-18T09:04:17;2.03;;;1.73;;
5054;SDS011;13829;48.990;8.346;2023-02-18T09:06:45;2.40;;;1.60;;
5054;SDS011;13829;48.990;8.346;2023-02-18T09:09:14;2.10;;;1.60;;
5054;SDS011;13829;48.990;8.346;2023-02-18T09:11:41;3.33;;;1.77;;
5054;SDS011;13829;48.990;8.346;2023-02-18T09:14:08;2.10;;;1.87;;
5054;SDS011;13829;48.990;8.346;2023-02-18T09:16:37;1.80;;;1.60;;
5054;SDS011;13829;48.990;8.346;2023-02-18T09:19:05;2.20;;;2.00;;
5054;SDS011;13829;48.990;8.346;2023-02-18T09:21:34;3.13;;;1.87;;
5054;SDS011;13829;48.990;8.346;2023-02-18T09:24:01;1.87;;;1.60;;
5054;SDS011;13829;48.990;8.346;2023-02-18T09:26:28;3.80;;;1.87;;
5054;SDS011;13829;48.990;8.346;2023-02-18T09:28:55;2.20;;;1.57;;
5054;SDS011;13829;48.990;8.346;2023-02-18T09:31:24;2.30;;;1.80;;
5054;SDS011;13829;48.990;8.346;2023-02-18T09:33:53;3.53;;;1.90;;
5054;SDS011;13829;48.990;8.346;2023-02-18T09:36:23;2.60;;;2.10;;
5054;SDS011;13829;48.990;8.346;2023-02-18T09:38:52;3.23;;;1.90;;
5054;SDS011;13829;48.990;8.346;2023-02-18T09:41:24;2.50;;;2.07;;
5054;SDS011;13829;48.990;8.346;2023-02-18T09:44:00;2.20;;;1.70;;
5054;SDS011;13829;48.990;8.346;2023-02-18T09:46:32;2.43;;;1.90;;
5054;SDS011;13829;48.990;8.346;2023-02-18T09:49:05;2.27;;;1.57;;
5054;SDS011;13829;48.990;8.346;2023-02-18T09:51:41;2.93;;;1.70;;
5054;SDS011;13829;48.990;8.346;2023-02-18T09:54:10;1.63;;;1.53;;
5054;SDS011;13829;48.990;8.346;2023-02-18T09:56:41;1.83;;;1.40;;
5054;SDS011;13829;48.990;8.346;2023-02-18T09:59:11;1.87;;;1.73;;
5054;SDS011;13829;48.990;8.346;2023-02-18T10:01:43;3.13;;;2.10;;
5054;SDS011;13829;48.990;8.346;2023-02-18T10:04:16;2.07;;;1.77;;
5054;SDS011;13829;48.990;8.346;2023-02-18T10:06:48;2.10;;;1.67;;
5054;SDS011;13829;48.990;8.346;2023-02-18T10:09:20;3.07;;;2.10;;
5054;SDS011;13829;48.990;8.346;2023-02-18T10:11:54;2.80;;;2.00;;
5054;SDS011;13829;48.990;8.346;2023-02-18T10:14:26;2.23;;;1.80;;
5054;SDS011;13829;48.990;8.346;2023-02-18T10:16:54;2.17;;;1.87;;
5054;SDS011;13829;48.990;8.346;2023-02-18T10:19:25;2.57;;;2.07;;
5054;SDS011;13829;48.990;8.346;2023-02-18T10:21:59;3.27;;;1.80;;
5054;SDS011;13829;48.990;8.346;2023-02-18T10:24:30;2.37;;;2.00;;
5054;SDS011;13829;48.990;8.346;2023-02-18T10:27:02;2.57;;;1.87;;
5054;SDS011;13829;48.990;8.346;2023-02-18T10:29:31;3.77;;;2.00;;
5054;SDS011;13829;48.990;8.346;2023-02-18T10:32:02;2.10;;;1.60;;
5054;SDS011;13829;48.990;8.346;2023-02-18T10:34:42;2.37;;;2.00;;
5054;SDS011;13829;48.990;8.346;2023-02-18T10:37:19;2.60;;;2.00;;
5054;SDS011;13829;48.990;8.346;2023-02-18T10:40:10;2.63;;;2.20;;
5054;SDS011;13829;48.990;8.346;2023-02-18T10:42:52;1.87;;;1.37;;
5054;SDS011;13829;48.990;8.346;2023-02-18T10:45:36;2.00;;;1.80;;
5054;SDS011;13829;48.990;8.346;2023-02-18T10:48:16;4.40;;;2.57;;
5054;SDS011;13829;48.990;8.346;2023-02-18T10:51:13;3.17;;;2.20;;
5054;SDS011;13829;48.990;8.346;2023-02-18T10:53:45;2.30;;;1.97;;
5054;SDS011;13829;48.990;8.346;2023-02-18T10:56:36;3.80;;;2.57;;
5054;SDS011;13829;48.990;8.346;2023-02-18T10:59:09;2.60;;;2.40;;
5054;SDS011;13829;48.990;8.346;2023-02-18T11:01:39;2.80;;;2.20;;
5054;SDS011;13829;48.990;8.346;2023-02-18T11:04:12;2.47;;;2.17;;
5054;SDS011;13829;48.990;8.346;2023-02-18T11:06:43;4.63;;;2.37;;
5054;SDS011;13829;48.990;8.346;2023-02-18T11:09:22;3.60;;;2.60;;
5054;SDS011;13829;48.990;8.346;2023-02-18T11:12:01;3.10;;;2.53;;
5054;SDS011;13829;48.990;8.346;2023-02-18T11:14:39;2.80;;;2.47;;
5054;SDS011;13829;48.990;8.346;2023-02-18T11:17:11;3.63;;;2.40;;
5054;SDS011;13829;48.990;8.346;2023-02-18T11:19:50;2.23;;;2.03;;
5054;SDS011;13829;48.990;8.346;2023-02-18T11:22:21;2.50;;;2.30;;
5054;SDS011;13829;48.990;8.346;2023-02-18T11:24:55;2.37;;;2.10;;
5054;SDS011;13829;48.990;8.346;2023-02-18T11:27:26;6.40;;;2.70;;
5054;SDS011;13829;48.990;8.346;2023-02-18T11:30:01;3.37;;;2.50;;
5054;SDS011;13829;48.990;8.346;2023-02-18T11:32:33;3.23;;;2.47;;
5054;SDS011;13829;48.990;8.346;2023-02-18T11:35:02;5.67;;;3.07;;
5054;SDS011;13829;48.990;8.346;2023-02-18T11:37:31;4.00;;;3.17;;
5054;SDS011;13829;48.990;8.346;2023-02-18T11:40:00;2.67;;;2.23;;
5054;SDS011;13829;48.990;8.346;2023-02-18T11:42:29;2.63;;;2.40;;
5054;SDS011;13829;48.990;8.346;2023-02-18T11:44:57;3.73;;;2.90;;
5054;SDS011;13829;48.990;8.346;2023-02-18T11:47:26;2.50;;;2.30;;
5054;SDS011;13829;48.990;8.346;2023-02-18T11:49:59;3.50;;;3.20;;
5054;SDS011;13829;48.990;8.346;2023-02-18T11:52:41;3.93;;;2.83;;
5054;SDS011;13829;48.990;8.346;2023-02-18T11:55:14;3.27;;;2.90;;
5054;SDS011;13829;48.990;8.346;2023-02-18T11:57:48;3.17;;;2.87;;
5054;SDS011;13829;48.990;8.346;2023-02-18T12:00:22;3.10;;;2.80;;
5054;SDS011;13829;48.990;8.346;2023-02-18T12:02:57;3.37;;;2.67;;
5054;SDS011;13829;48.990;8.346;2023-02-18T12:05:27;3.47;;;2.80;;
5054;SDS011;13829;48.990;8.346;2023-02-18T12:07:58;4.13;;;3.00;;
5054;SDS011;13829;48.990;8.346;2023-02-18T12:10:34;5.00;;;3.33;;
5054;SDS011;13829;48.990;8.346;2023-02-18T12:13:09;4.10;;;3.57;;
5054;SDS011;13829;48.990;8.346;2023-02-18T12:15:51;3.70;;;2.97;;
5054;SDS011;13829;48.990;8.346;2023-02-18T12:18:37;4.13;;;3.10;;
5054;SDS011;13829;48.990;8.346;2023-02-18T12:21:23;3.87;;;3.17;;
5054;SDS011;13829;48.990;8.346;2023-02-18T12:24:09;4.53;;;3.30;;
5054;SDS011;13829;48.990;8.346;2023-02-18T12:26:54;3.57;;;3.23;;
5054;SDS011;13829;48.990;8.346;2023-02-18T12:29:43;3.47;;;3.17;;
5054;SDS011;13829;48.990;8.346;2023-02-18T12:32:47;3.93;;;2.77;;
5054;SDS011;13829;48.990;8.346;2023-02-18T12:35:31;4.10;;;3.33;;
5054;SDS011;13829;48.990;8.346;2023-02-18T12:38:19;3.60;;;3.20;;
5054;SDS011;13829;48.990;8.346;2023-02-18T12:44:38;5.63;;;3.53;;
5054;SDS011;13829;48.990;8.346;2023-02-18T12:47:37;3.47;;;3.17;;
5054;SDS011;13829;48.990;8.346;2023-02-18T12:50:44;3.37;;;3.07;;
5054;SDS011;13829;48.990;8.346;2023-02-18T12:53:31;4.07;;;3.50;;
5054;SDS011;13829;48.990;8.346;2023-02-18T12:56:24;3.47;;;3.17;;
5054;SDS011;13829;48.990;8.346;2023-02-18T12:59:27;4.53;;;3.60;;
5054;SDS011;13829;48.990;8.346;2023-02-18T13:02:33;4.10;;;3.70;;
5054;SDS011;13829;48.990;8.346;2023-02-18T13:05:37;4.23;;;3.07;;
5054;SDS011;13829;48.990;8.346;2023-02-18T13:08:14;3.77;;;3.33;;
5054;SDS011;13829;48.990;8.346;2023-02-18T13:11:00;4.60;;;3.73;;
5054;SDS011;13829;48.990;8.346;2023-02-18T13:13:41;3.70;;;3.33;;
5054;SDS011;13829;48.990;8.346;2023-02-18T13:16:18;5.10;;;2.83;;
5054;SDS011;13829;48.990;8.346;2023-02-18T13:18:49;2.93;;;2.37;;
5054;SDS011;13829;48.990;8.346;2023-02-18T13:21:27;3.17;;;2.10;;
5054;SDS011;13829;48.990;8.346;2023-02-18T13:23:55;2.43;;;2.23;;
5054;SDS011;13829;48.990;8.346;2023-02-18T13:26:26;2.50;;;2.30;;
5054;SDS011;13829;48.990;8.346;2023-02-18T13:29:02;3.37;;;2.00;;
5054;SDS011;13829;48.990;8.346;2023-02-18T13:31:53;2.90;;;2.10;;
5054;SDS011;13829;48.990;8.346;2023-02-18T13:34:35;2.90;;;1.70;;
5054;SDS011;13829;48.990;8.346;2023-02-18T13:37:14;3.17;;;2.43;;
5054;SDS011;13829;48.990;8.346;2023-02-18T13:39:52;2.10;;;1.80;;
5054;SDS011;13829;48.990;8.346;2023-02-18T13:42:29;2.77;;;1.90;;
5054;SDS011;13829;48.990;8.346;2023-02-18T13:45:05;2.00;;;1.80;;
5054;SDS011;13829;48.990;8.346;2023-02-18T13:47:58;2.17;;;1.73;;
5054;SDS011;13829;48.990;8.346;2023-02-18T13:50:27;4.73;;;2.00;;
5054;SDS011;13829;48.990;8.346;2023-02-18T13:53:13;3.23;;;1.80;;
5054;SDS011;13829;48.990;8.346;2023-02-18T13:55:51;2.80;;;1.70;;
5054;SDS011;13829;48.990;8.346;2023-02-18T13:58:29;2.57;;;1.60;;
5054;SDS011;13829;48.990;8.346;2023-02-18T14:01:12;4.73;;;1.90;;
5054;SDS011;13829;48.990;8.346;2023-02-18T14:03:55;2.10;;;1.90;;
5054;SDS011;13829;48.990;8.346;2023-02-18T14:06:27;2.00;;;1.80;;
5054;SDS011;13829;48.990;8.346;2023-02-18T14:09:02;2.10;;;1.90;;
5054;SDS011;13829;48.990;8.346;2023-02-18T14:12:14;2.27;;;1.90;;
5054;SDS011;13829;48.990;8.346;2023-02-18T14:15:40;2.53;;;1.60;;
5054;SDS011;13829;48.990;8.346;2023-02-18T14:18:24;1.83;;;1.60;;
5054;SDS011;13829;48.990;8.346;2023-02-18T14:21:20;3.50;;;1.53;;
5054;SDS011;13829;48.990;8.346;2023-02-18T14:24:01;2.00;;;1.40;;
5054;SDS011;13829;48.990;8.346;2023-02-18T14:26:32;1.73;;;1.20;;
5054;SDS011;13829;48.990;8.346;2023-02-18T14:29:05;2.40;;;1.10;;
5054;SDS011;13829;48.990;8.346;2023-02-18T14:31:55;2.80;;;1.50;;
5054;SDS011;13829;48.990;8.346;2023-02-18T14:34:44;1.73;;;1.30;;
5054;SDS011;13829;48.990;8.346;2023-02-18T14:37:39;1.57;;;1.30;;
5054;SDS011;13829;48.990;8.346;2023-02-18T14:40:37;1.20;;;1.10;;
5054;SDS011;13829;48.990;8.346;2023-02-18T14:43:26;1.60;;;1.20;;
5054;SDS011;13829;48.990;8.346;2023-02-18T14:46:19;2.23;;;1.20;;
5054;SDS011;13829;48.990;8.346;2023-02-18T14:49:12;1.60;;;1.40;;
5054;SDS011;13829;48.990;8.346;2023-02-18T14:52:01;2.40;;;1.30;;
5054;SDS011;13829;48.990;8.346;2023-02-18T14:54:32;1.70;;;1.33;;
5054;SDS011;13829;48.990;8.346;2023-02-18T14:57:02;2.23;;;1.20;;
5054;SDS011;13829;48.990;8.346;2023-02-18T14:59:34;1.57;;;1.20;;
5054;SDS011;13829;48.990;8.346;2023-02-18T15:02:08;1.53;;;1.30;;
5054;SDS011;13829;48.990;8.346;2023-02-18T15:04:45;1.87;;;1.40;;
5054;SDS011;13829;48.990;8.346;2023-02-18T15:07:16;1.90;;;1.30;;
5054;SDS011;13829;48.990;8.346;2023-02-18T15:09:47;1.47;;;1.30;;
5054;SDS011;13829;48.990;8.346;2023-02-18T15:12:19;1.43;;;1.33;;
5054;SDS011;13829;48.990;8.346;2023-02-18T15:14:50;1.43;;;1.30;;
5054;SDS011;13829;48.990;8.346;2023-02-18T15:17:20;1.93;;;1.37;;
5054;SDS011;13829;48.990;8.346;2023-02-18T15:19:51;1.70;;;1.10;;
5054;SDS011;13829;48.990;8.346;2023-02-18T15:22:21;1.30;;;1.20;;
5054;SDS011;13829;48.990;8.346;2023-02-18T15:24:52;2.33;;;1.13;;
5054;SDS011;13829;48.990;8.346;2023-02-18T15:27:21;3.57;;;1.60;;
5054;SDS011;13829;48.990;8.346;2023-02-18T15:29:51;1.80;;;1.37;;
5054;SDS011;13829;48.990;8.346;2023-02-18T15:32:23;2.00;;;1.60;;
5054;SDS011;13829;48.990;8.346;2023-02-18T15:34:54;1.97;;;1.73;;
5054;SDS011;13829;48.990;8.346;2023-02-18T15:37:26;2.03;;;1.60;;
5054;SDS011;13829;48.990;8.346;2023-02-18T15:39:55;2.30;;;1.60;;
5054;SDS011;13829;48.990;8.346;2023-02-18T15:42:24;2.00;;;1.60;;
5054;SDS011;13829;48.990;8.346;2023-02-18T15:44:55;3.20;;;1.77;;
5054;SDS011;13829;48.990;8.346;2023-02-18T15:47:27;3.90;;;1.73;;
5054;SDS011;13829;48.990;8.346;2023-02-18T15:49:55;1.73;;;1.63;;